createdAt,value
2019-01-15T00:01:11.806Z,15.83
2019-01-15T00:03:39.285Z,16.93
2019-01-15T00:06:06.710Z,16.13
2019-01-15T00:08:37.366Z,15.83
2019-01-15T00:11:04.770Z,16.50
2019-01-15T00:13:35.174Z,13.77
2019-01-15T00:16:02.588Z,13.87
2019-01-15T00:18:30.012Z,15.23
2019-01-15T00:20:57.405Z,14.33
2019-01-15T00:23:24.843Z,14.37
2019-01-15T00:25:52.257Z,16.73
2019-01-15T00:28:19.722Z,14.50
2019-01-15T00:30:47.119Z,14.07
2019-01-15T00:33:14.563Z,14.33
2019-01-15T00:35:42.023Z,14.43
2019-01-15T00:38:09.471Z,14.20
2019-01-15T00:40:37.202Z,13.23
2019-01-15T00:43:04.608Z,14.17
2019-01-15T00:45:32.047Z,14.03
2019-01-15T00:47:59.448Z,14.27
2019-01-15T00:50:26.883Z,14.03
2019-01-15T00:52:54.290Z,15.40
2019-01-15T00:55:21.715Z,16.87
2019-01-15T00:57:49.116Z,16.03
2019-01-15T01:00:16.548Z,18.30
2019-01-15T01:02:43.973Z,16.93
2019-01-15T01:05:11.377Z,17.47
2019-01-15T01:07:38.774Z,16.60
2019-01-15T01:10:06.525Z,18.87
2019-01-15T01:12:34.429Z,17.43
2019-01-15T01:15:01.853Z,17.73
2019-01-15T01:17:30.838Z,20.33
2019-01-15T01:19:58.252Z,19.97
2019-01-15T01:22:25.662Z,18.30
2019-01-15T01:24:53.082Z,19.87
2019-01-15T01:27:20.479Z,20.97
2019-01-15T01:29:47.913Z,21.47
2019-01-15T01:32:15.329Z,21.43
2019-01-15T01:34:42.763Z,19.20
2019-01-15T01:37:10.642Z,21.53
2019-01-15T01:39:38.048Z,21.77
2019-01-15T01:42:05.799Z,22.13
2019-01-15T01:44:33.202Z,22.73
2019-01-15T01:47:00.636Z,23.33
2019-01-15T01:49:28.061Z,23.40
2019-01-15T01:51:55.548Z,24.30
2019-01-15T01:54:23.053Z,24.73
2019-01-15T01:56:50.474Z,23.20
2019-01-15T01:59:18.094Z,23.83
2019-01-15T02:01:45.342Z,24.07
2019-01-15T02:04:12.763Z,24.07
2019-01-15T02:06:40.185Z,24.20
2019-01-15T02:09:07.619Z,28.23
2019-01-15T02:11:35.036Z,25.40
2019-01-15T02:14:02.459Z,26.70
2019-01-15T02:16:29.879Z,26.57
2019-01-15T02:18:57.287Z,26.60
2019-01-15T02:21:24.710Z,27.77
2019-01-15T02:23:52.148Z,27.73
2019-01-15T02:26:22.672Z,27.90
2019-01-15T02:28:50.080Z,28.43
2019-01-15T02:31:17.519Z,29.50
2019-01-15T02:33:45.758Z,30.37
2019-01-15T02:36:13.235Z,29.93
2019-01-15T02:38:40.671Z,30.73
2019-01-15T02:41:08.064Z,31.63
2019-01-15T02:43:35.473Z,29.87
2019-01-15T02:46:03.761Z,30.43
2019-01-15T02:48:31.172Z,31.80
2019-01-15T02:50:58.585Z,32.77
2019-01-15T02:53:26.004Z,33.27
2019-01-15T02:55:53.411Z,34.97
2019-01-15T02:58:20.828Z,31.77
2019-01-15T03:00:48.228Z,33.53
2019-01-15T03:03:15.660Z,34.77
2019-01-15T03:05:43.062Z,31.23
2019-01-15T03:08:10.487Z,33.20
2019-01-15T03:10:37.914Z,33.60
2019-01-15T03:13:05.325Z,33.03
2019-01-15T03:15:32.741Z,34.13
2019-01-15T03:18:00.183Z,35.93
2019-01-15T03:20:27.609Z,35.87
2019-01-15T03:22:55.013Z,37.47
2019-01-15T03:25:22.431Z,38.27
2019-01-15T03:27:49.841Z,36.17
2019-01-15T03:30:17.254Z,35.80
2019-01-15T03:32:44.663Z,34.37
2019-01-15T03:35:12.147Z,33.23
2019-01-15T03:37:39.555Z,34.90
2019-01-15T03:40:06.976Z,37.00
2019-01-15T03:42:36.796Z,34.57
2019-01-15T03:45:05.065Z,34.73
2019-01-15T03:47:31.645Z,34.23
2019-01-15T03:49:59.034Z,33.43
2019-01-15T03:52:26.458Z,35.03
2019-01-15T03:54:53.875Z,34.30
2019-01-15T03:57:21.322Z,34.37
2019-01-15T03:59:48.958Z,36.13
2019-01-15T04:02:18.496Z,33.30
2019-01-15T04:04:46.167Z,32.70
2019-01-15T04:07:13.590Z,33.17
2019-01-15T04:09:41.009Z,31.27
2019-01-15T04:12:11.290Z,31.40
2019-01-15T04:14:38.714Z,32.10
2019-01-15T04:17:06.109Z,29.20
2019-01-15T04:19:33.543Z,30.40
2019-01-15T04:22:00.963Z,30.90
2019-01-15T04:24:28.365Z,30.60
2019-01-15T04:26:55.801Z,31.93
2019-01-15T04:29:23.243Z,32.67
2019-01-15T04:31:50.647Z,31.83
2019-01-15T04:34:18.067Z,28.20
2019-01-15T04:36:45.475Z,31.07
2019-01-15T04:39:12.882Z,31.47
2019-01-15T04:41:40.317Z,27.60
2019-01-15T04:44:07.735Z,28.97
2019-01-15T04:46:35.173Z,25.97
2019-01-15T04:49:03.867Z,24.57
2019-01-15T04:51:29.969Z,26.07
2019-01-15T04:53:57.402Z,24.93
2019-01-15T04:56:24.808Z,25.73
2019-01-15T04:58:52.229Z,25.93
2019-01-15T05:01:19.666Z,25.17
2019-01-15T05:03:47.064Z,24.57
2019-01-15T05:06:14.588Z,25.50
2019-01-15T05:08:41.999Z,23.33
2019-01-15T05:11:09.411Z,25.73
2019-01-15T05:13:36.840Z,25.70
2019-01-15T05:16:04.264Z,25.33
2019-01-15T05:18:31.686Z,26.57
2019-01-15T05:20:59.091Z,26.33
2019-01-15T05:23:26.524Z,27.00
2019-01-15T05:25:53.920Z,26.73
2019-01-15T05:28:21.346Z,28.70
2019-01-15T05:30:48.780Z,28.57
2019-01-15T05:33:16.192Z,28.27
2019-01-15T05:35:43.599Z,27.13
2019-01-15T05:38:11.043Z,28.87
2019-01-15T05:40:38.450Z,26.17
2019-01-15T05:43:05.854Z,26.37
2019-01-15T05:45:33.277Z,26.97
2019-01-15T05:48:00.717Z,27.53
2019-01-15T05:50:40.348Z,31.73
2019-01-15T05:53:08.060Z,27.37
2019-01-15T05:55:35.480Z,25.50
2019-01-15T05:58:02.882Z,28.10
2019-01-15T06:00:30.296Z,25.50
2019-01-15T06:02:57.708Z,27.10
2019-01-15T06:05:27.063Z,26.33
2019-01-15T06:07:53.751Z,24.77
2019-01-15T06:10:19.956Z,25.43
2019-01-15T06:12:47.379Z,24.70
2019-01-15T06:15:14.833Z,26.30
2019-01-15T06:17:42.241Z,25.63
2019-01-15T06:20:09.636Z,25.07
2019-01-15T06:22:37.059Z,25.23
2019-01-15T06:25:04.468Z,25.20
2019-01-15T06:27:31.885Z,23.93
2019-01-15T06:29:59.286Z,24.93
2019-01-15T06:32:26.762Z,23.03
2019-01-15T06:34:54.183Z,23.93
2019-01-15T06:37:21.582Z,22.87
2019-01-15T06:39:48.975Z,22.33
2019-01-15T06:42:16.407Z,23.63
2019-01-15T06:44:43.819Z,23.03
2019-01-15T06:47:11.221Z,20.77
2019-01-15T06:49:38.637Z,22.77
2019-01-15T06:52:06.043Z,20.50
2019-01-15T06:54:33.475Z,21.50
2019-01-15T06:57:03.425Z,20.77
2019-01-15T06:59:30.826Z,21.77
2019-01-15T07:01:58.259Z,20.53
2019-01-15T07:04:25.666Z,19.87
2019-01-15T07:06:53.092Z,20.37
2019-01-15T07:09:20.498Z,21.13
2019-01-15T07:11:47.924Z,20.77
2019-01-15T07:14:15.328Z,20.07
2019-01-15T07:16:42.774Z,18.97
2019-01-15T07:19:10.181Z,20.57
2019-01-15T07:21:37.642Z,20.10
2019-01-15T07:24:05.037Z,17.53
2019-01-15T07:26:32.448Z,20.03
2019-01-15T07:28:59.897Z,17.60
2019-01-15T07:31:27.275Z,18.63
2019-01-15T07:33:54.701Z,18.23
2019-01-15T07:36:22.129Z,18.03
2019-01-15T07:38:49.557Z,17.63
2019-01-15T07:41:16.968Z,17.30
2019-01-15T07:43:44.401Z,17.37
2019-01-15T07:46:11.798Z,17.57
2019-01-15T07:48:39.221Z,17.07
2019-01-15T07:51:06.660Z,16.70
2019-01-15T07:53:34.077Z,15.87
2019-01-15T07:56:01.482Z,16.40
2019-01-15T07:58:28.905Z,16.67
2019-01-15T08:00:56.313Z,18.00
2019-01-15T08:03:23.739Z,16.57
2019-01-15T08:05:51.159Z,15.80
2019-01-15T08:08:18.571Z,14.90
2019-01-15T08:10:46.007Z,15.60
2019-01-15T08:13:13.426Z,15.57
2019-01-15T08:15:40.848Z,14.70
2019-01-15T08:18:08.253Z,14.20
2019-01-15T08:20:35.673Z,14.20
2019-01-15T08:23:03.082Z,14.53
2019-01-15T08:25:30.510Z,14.20
2019-01-15T08:27:57.939Z,12.90
2019-01-15T08:30:30.713Z,13.67
2019-01-15T08:32:58.156Z,16.20
2019-01-15T08:35:25.549Z,13.20
2019-01-15T08:37:52.977Z,12.27
2019-01-15T08:40:20.379Z,13.47
2019-01-15T08:42:47.809Z,13.87
2019-01-15T08:45:18.275Z,11.97
2019-01-15T08:47:51.342Z,13.03
2019-01-15T08:50:27.578Z,11.60
2019-01-15T08:52:55.015Z,11.80
2019-01-15T08:55:22.452Z,11.53
2019-01-15T08:57:49.910Z,10.93
2019-01-15T09:00:17.323Z,10.43
2019-01-15T09:02:44.720Z,9.40
2019-01-15T09:05:14.691Z,9.80
2019-01-15T09:07:42.217Z,11.83
2019-01-15T09:10:09.636Z,9.83
2019-01-15T09:12:37.043Z,10.20
2019-01-15T09:15:04.483Z,8.60
2019-01-15T09:17:31.912Z,9.03
2019-01-15T09:19:59.350Z,9.10
2019-01-15T09:22:26.776Z,8.17
2019-01-15T09:24:54.174Z,7.97
2019-01-15T09:27:22.770Z,8.57
2019-01-15T09:29:49.004Z,8.27
2019-01-15T09:32:16.427Z,8.40
2019-01-15T09:34:43.849Z,8.97
2019-01-15T09:37:12.336Z,8.07
2019-01-15T09:39:39.854Z,9.17
2019-01-15T09:42:07.716Z,8.60
2019-01-15T09:44:35.124Z,8.17
2019-01-15T09:47:02.569Z,8.43
2019-01-15T09:49:30.004Z,7.33
2019-01-15T09:51:57.434Z,6.47
2019-01-15T09:54:24.850Z,7.10
2019-01-15T09:56:52.265Z,6.00
2019-01-15T09:59:19.671Z,6.90
2019-01-15T10:01:47.082Z,6.03
2019-01-15T10:04:14.478Z,5.80
2019-01-15T10:06:41.908Z,5.40
2019-01-15T10:09:09.323Z,15.17
2019-01-15T10:11:36.809Z,5.43
2019-01-15T10:14:04.242Z,5.97
2019-01-15T10:16:31.676Z,5.57
2019-01-15T10:18:59.071Z,5.87
2019-01-15T10:21:26.507Z,5.27
2019-01-15T10:23:53.908Z,4.70
2019-01-15T10:26:21.311Z,4.87
2019-01-15T10:28:48.742Z,5.27
2019-01-15T10:31:19.123Z,4.83
2019-01-15T10:33:46.549Z,5.13
2019-01-15T10:36:13.422Z,4.87
2019-01-15T10:38:40.940Z,4.07
2019-01-15T10:41:09.579Z,5.20
2019-01-15T10:43:35.795Z,4.47
2019-01-15T10:46:03.219Z,4.67
2019-01-15T10:48:30.623Z,3.90
2019-01-15T10:50:58.047Z,4.37
2019-01-15T10:53:25.485Z,4.03
2019-01-15T10:55:52.905Z,3.63
2019-01-15T10:58:20.300Z,3.57
2019-01-15T11:00:47.724Z,4.37
2019-01-15T11:03:15.127Z,3.80
2019-01-15T11:05:42.526Z,4.07
2019-01-15T11:08:09.955Z,3.77
2019-01-15T11:10:37.410Z,4.77
2019-01-15T11:13:04.944Z,4.43
2019-01-15T11:15:32.252Z,4.43
2019-01-15T11:17:59.691Z,4.77
2019-01-15T11:20:27.099Z,4.67
2019-01-15T11:22:54.520Z,4.40
2019-01-15T11:25:21.923Z,4.60
2019-01-15T11:27:49.347Z,3.70
2019-01-15T11:30:16.757Z,5.23
2019-01-15T11:32:44.193Z,4.13
2019-01-15T11:35:11.598Z,4.17
2019-01-15T11:37:38.991Z,4.77
2019-01-15T11:40:09.127Z,4.10
2019-01-15T11:42:36.592Z,5.17
2019-01-15T11:45:03.971Z,4.20
2019-01-15T11:47:31.380Z,4.80
2019-01-15T11:49:58.812Z,4.40
2019-01-15T11:52:26.213Z,4.83
2019-01-15T11:54:53.633Z,4.30
2019-01-15T11:57:21.035Z,4.73
2019-01-15T11:59:48.447Z,3.97
2019-01-15T12:02:22.044Z,4.70
2019-01-15T12:04:43.266Z,4.63
2019-01-15T12:07:19.632Z,4.73
2019-01-15T12:09:58.864Z,4.17
2019-01-15T12:12:32.468Z,4.00
2019-01-15T12:15:11.050Z,5.67
2019-01-15T12:17:51.093Z,5.13
2019-01-15T12:20:36.721Z,4.53
2019-01-15T12:23:13.128Z,4.97
2019-01-15T12:25:52.586Z,4.80
2019-01-15T12:28:37.836Z,6.23
2019-01-15T12:31:11.123Z,5.00
2019-01-15T12:33:41.051Z,5.23
2019-01-15T12:36:25.114Z,5.00
2019-01-15T12:39:04.696Z,4.87
2019-01-15T12:41:50.118Z,4.57
2019-01-15T12:44:35.948Z,5.00
2019-01-15T12:47:05.850Z,4.57
2019-01-15T12:49:33.284Z,5.47
2019-01-15T12:52:00.684Z,5.43
2019-01-15T12:54:28.109Z,4.80
2019-01-15T12:57:19.071Z,5.10
2019-01-15T12:59:55.693Z,4.83
2019-01-15T13:02:32.223Z,4.93
2019-01-15T13:05:08.364Z,4.93
2019-01-15T13:07:54.145Z,5.10
2019-01-15T13:10:33.397Z,4.90
2019-01-15T13:13:03.329Z,5.20
2019-01-15T13:15:34.851Z,4.70
2019-01-15T13:17:58.163Z,4.87
2019-01-15T13:20:25.596Z,5.27
2019-01-15T13:22:53.079Z,5.73
2019-01-15T13:25:38.633Z,4.60
2019-01-15T13:28:12.029Z,5.03
2019-01-15T13:30:57.730Z,6.20
2019-01-15T13:33:27.829Z,4.50
2019-01-15T13:36:04.249Z,5.30
2019-01-15T13:38:37.490Z,5.33
2019-01-15T13:41:20.202Z,5.27
2019-01-15T13:43:47.603Z,5.10
2019-01-15T13:46:33.545Z,5.40
2019-01-15T13:49:19.024Z,4.80
2019-01-15T13:52:04.470Z,5.37
2019-01-15T13:54:41.082Z,4.87
2019-01-15T13:57:11.046Z,4.83
2019-01-15T13:59:38.436Z,4.77
2019-01-15T14:02:05.859Z,4.87
2019-01-15T14:04:41.868Z,4.27
2019-01-15T14:07:17.920Z,5.13
2019-01-15T14:10:03.335Z,5.07
2019-01-15T14:12:33.409Z,4.33
2019-01-15T14:15:18.831Z,4.03
2019-01-15T14:17:46.273Z,4.40
2019-01-15T14:20:16.546Z,4.00
2019-01-15T14:22:43.997Z,4.17
2019-01-15T14:25:17.400Z,5.83
2019-01-15T14:28:00.174Z,3.80
2019-01-15T14:30:37.874Z,5.47
2019-01-15T14:33:10.282Z,4.47
2019-01-15T14:35:49.530Z,4.80
2019-01-15T14:38:22.785Z,5.07
2019-01-15T14:40:55.958Z,4.70
2019-01-15T14:43:41.463Z,3.97
2019-01-15T14:46:27.117Z,4.40
2019-01-15T14:48:54.550Z,4.93
2019-01-15T14:51:28.970Z,5.20
2019-01-15T14:53:56.629Z,5.00
2019-01-15T14:56:26.878Z,4.57
2019-01-15T14:59:00.149Z,4.87
2019-01-15T15:01:45.702Z,4.17
2019-01-15T15:04:31.797Z,4.13
2019-01-15T15:07:18.210Z,4.07
2019-01-15T15:10:03.517Z,4.20
2019-01-15T15:12:39.533Z,4.30
2019-01-15T15:15:25.063Z,4.50
2019-01-15T15:17:58.567Z,6.13
2019-01-15T15:20:25.973Z,7.53
2019-01-15T15:22:55.977Z,10.23
2019-01-15T15:25:23.391Z,10.40
2019-01-15T15:28:02.788Z,8.07
2019-01-15T15:30:30.182Z,8.75
2019-01-15T15:33:12.580Z,8.50
2019-01-15T15:35:42.922Z,8.43
2019-01-15T15:38:28.275Z,6.93
2019-01-15T15:41:08.652Z,7.80
2019-01-15T15:43:48.114Z,7.37
2019-01-15T15:46:35.523Z,7.03
2019-01-15T15:49:11.647Z,6.90
2019-01-15T15:51:57.402Z,7.40
2019-01-15T15:54:24.803Z,7.63
2019-01-15T15:56:57.879Z,7.33
2019-01-15T15:59:31.017Z,7.70
2019-01-15T16:02:16.596Z,7.87
2019-01-15T16:04:46.806Z,7.73
2019-01-15T16:07:16.095Z,6.60
2019-01-15T16:09:46.117Z,6.60
2019-01-15T16:12:19.529Z,6.30
2019-01-15T16:14:46.948Z,6.70
2019-01-15T16:17:14.370Z,6.43
2019-01-15T16:19:50.469Z,6.97
2019-01-15T16:22:33.015Z,6.40
2019-01-15T16:25:02.984Z,6.57
2019-01-15T16:27:39.233Z,6.80
2019-01-15T16:30:25.022Z,6.30
2019-01-15T16:33:01.591Z,6.83
2019-01-15T16:35:31.815Z,7.00
2019-01-15T16:37:59.221Z,6.50
2019-01-15T16:40:45.597Z,7.50
2019-01-15T16:43:12.464Z,7.30
2019-01-15T16:45:58.189Z,6.87
2019-01-15T16:48:37.369Z,7.00
2019-01-15T16:51:07.304Z,7.40
2019-01-15T16:53:43.485Z,7.23
2019-01-15T16:56:10.909Z,7.27
2019-01-15T16:58:47.125Z,7.00
2019-01-15T17:01:17.627Z,7.33
2019-01-15T17:03:54.127Z,7.17
2019-01-15T17:06:39.735Z,6.67
2019-01-15T17:09:22.143Z,7.07
2019-01-15T17:11:52.360Z,6.37
2019-01-15T17:14:26.063Z,6.10
2019-01-15T17:16:53.481Z,7.13
2019-01-15T17:19:20.887Z,6.53
2019-01-15T17:21:48.322Z,6.20
2019-01-15T17:24:18.748Z,6.70
2019-01-15T17:26:48.870Z,6.70
2019-01-15T17:29:28.120Z,6.93
2019-01-15T17:32:04.257Z,7.47
2019-01-15T17:34:31.734Z,6.77
2019-01-15T17:37:10.921Z,8.43
2019-01-15T17:39:50.421Z,7.90
2019-01-15T17:42:20.707Z,8.40
2019-01-15T17:45:00.187Z,10.37
2019-01-15T17:47:45.702Z,10.13
2019-01-15T17:50:18.928Z,8.67
2019-01-15T17:52:51.994Z,7.73
2019-01-15T17:55:19.430Z,8.07
2019-01-15T17:58:05.497Z,8.83
2019-01-15T18:00:51.248Z,8.30
2019-01-15T18:03:24.336Z,9.30
2019-01-15T18:05:51.831Z,8.87
2019-01-15T18:08:28.078Z,9.13
2019-01-15T18:10:55.528Z,9.87
2019-01-15T18:13:22.995Z,9.73
2019-01-15T18:15:50.407Z,9.73
2019-01-15T18:18:17.833Z,10.17
2019-01-15T18:20:45.244Z,9.43
2019-01-15T18:23:18.389Z,10.00
2019-01-15T18:25:45.810Z,10.57
2019-01-15T18:28:25.321Z,10.20
2019-01-15T18:30:55.433Z,9.50
2019-01-15T18:33:25.741Z,9.83
2019-01-15T18:35:53.169Z,11.07
2019-01-15T18:38:29.442Z,10.40
2019-01-15T18:41:15.128Z,10.73
2019-01-15T18:43:45.446Z,11.87
2019-01-15T18:46:15.801Z,10.23
2019-01-15T18:48:43.242Z,9.93
2019-01-15T18:51:13.429Z,14.13
2019-01-15T18:53:40.877Z,11.40
2019-01-15T18:56:17.259Z,13.80
2019-01-15T18:58:53.771Z,13.70
2019-01-15T19:01:27.208Z,11.63
2019-01-15T19:04:00.719Z,12.43
2019-01-15T19:06:40.193Z,14.10
2019-01-15T19:09:25.744Z,12.73
2019-01-15T19:11:55.755Z,13.20
2019-01-15T19:14:31.810Z,12.23
2019-01-15T19:17:10.993Z,13.50
2019-01-15T19:19:38.447Z,13.40
2019-01-15T19:22:15.171Z,12.63
2019-01-15T19:24:48.586Z,14.27
2019-01-15T19:27:16.002Z,11.80
2019-01-15T19:29:45.340Z,12.63
2019-01-15T19:32:31.205Z,13.97
2019-01-15T19:35:16.541Z,13.43
2019-01-15T19:37:56.083Z,12.23
2019-01-15T19:40:26.653Z,13.50
2019-01-15T19:43:09.070Z,12.03
2019-01-15T19:45:39.482Z,13.30
2019-01-15T19:48:06.947Z,12.73
2019-01-15T19:50:49.428Z,12.93
2019-01-15T19:53:16.856Z,14.20
2019-01-15T19:55:52.964Z,14.43
2019-01-15T19:58:20.376Z,13.87
2019-01-15T20:00:47.963Z,14.83
2019-01-15T20:03:24.316Z,15.53
2019-01-15T20:06:00.431Z,15.90
2019-01-15T20:08:30.801Z,16.20
2019-01-15T20:11:13.355Z,16.43
2019-01-15T20:13:52.967Z,16.07
2019-01-15T20:16:38.956Z,16.67
2019-01-15T20:19:15.580Z,15.87
2019-01-15T20:22:00.917Z,17.17
2019-01-15T20:24:31.257Z,17.30
2019-01-15T20:27:04.765Z,17.27
2019-01-15T20:29:50.359Z,18.57
2019-01-15T20:32:17.757Z,17.83
2019-01-15T20:34:53.296Z,17.27
2019-01-15T20:37:19.165Z,15.70
2019-01-15T20:39:52.038Z,17.47
2019-01-15T20:42:31.601Z,15.03
2019-01-15T20:45:11.253Z,18.93
2019-01-15T20:47:41.558Z,15.20
2019-01-15T20:50:27.129Z,13.97
2019-01-15T20:53:03.164Z,13.73
2019-01-15T20:55:30.658Z,13.17
2019-01-15T20:58:04.198Z,15.40
2019-01-15T21:00:49.446Z,15.00
2019-01-15T21:03:29.153Z,14.57
2019-01-15T21:06:02.415Z,14.90
2019-01-15T21:08:29.822Z,15.57
2019-01-15T21:11:03.255Z,18.37
2019-01-15T21:13:49.143Z,17.53
2019-01-15T21:16:19.092Z,18.63
2019-01-15T21:18:49.322Z,17.07
2019-01-15T21:21:32.057Z,17.67
2019-01-15T21:24:18.066Z,17.43
2019-01-15T21:27:03.830Z,16.73
2019-01-15T21:29:34.201Z,17.63
2019-01-15T21:32:07.668Z,17.03
2019-01-15T21:34:38.061Z,16.67
2019-01-15T21:37:23.604Z,18.00
2019-01-15T21:39:51.022Z,17.83
2019-01-15T21:42:36.360Z,19.17
2019-01-15T21:45:03.784Z,18.63
2019-01-15T21:47:46.492Z,17.97
2019-01-15T21:50:32.155Z,16.37
2019-01-15T21:53:04.849Z,17.77
2019-01-15T21:55:50.707Z,16.50
2019-01-15T21:58:18.142Z,15.80
2019-01-15T22:00:45.645Z,17.50
2019-01-15T22:03:15.768Z,16.53
2019-01-15T22:05:43.265Z,17.60
2019-01-15T22:08:10.667Z,16.20
2019-01-15T22:10:44.188Z,16.93
2019-01-15T22:13:29.958Z,16.73
2019-01-15T22:16:00.200Z,15.63
2019-01-15T22:18:46.117Z,16.10
2019-01-15T22:21:31.888Z,15.90
2019-01-15T22:24:17.271Z,15.83
2019-01-15T22:26:44.706Z,15.27
2019-01-15T22:29:20.917Z,14.40
2019-01-15T22:31:51.029Z,14.70
2019-01-15T22:34:36.770Z,14.70
2019-01-15T22:37:13.021Z,13.17
2019-01-15T22:39:40.431Z,13.00
2019-01-15T22:42:20.191Z,13.30
2019-01-15T22:44:47.778Z,12.37
2019-01-15T22:47:21.714Z,12.17
2019-01-15T22:49:49.137Z,12.90
2019-01-15T22:52:19.335Z,11.57
2019-01-15T22:54:46.745Z,11.83
2019-01-15T22:57:14.197Z,10.80
2019-01-15T22:59:41.662Z,11.80
2019-01-15T23:02:21.147Z,10.93
2019-01-15T23:04:51.343Z,10.70
2019-01-15T23:07:18.757Z,10.13
2019-01-15T23:09:48.909Z,9.80
2019-01-15T23:12:22.251Z,9.00
2019-01-15T23:14:49.662Z,10.63
2019-01-15T23:17:19.986Z,10.27
2019-01-15T23:19:53.112Z,10.70
2019-01-15T23:22:35.719Z,10.70
2019-01-15T23:25:18.538Z,10.07
2019-01-15T23:27:57.990Z,9.97
2019-01-15T23:30:31.328Z,9.63
2019-01-15T23:32:58.800Z,9.23
2019-01-15T23:35:28.951Z,9.57
2019-01-15T23:37:59.077Z,9.40
2019-01-15T23:40:32.518Z,8.83
2019-01-15T23:43:12.049Z,9.47
2019-01-15T23:45:42.635Z,9.03
2019-01-15T23:48:28.201Z,9.57
2019-01-15T23:50:55.606Z,9.10
2019-01-15T23:53:28.540Z,9.23
2019-01-15T23:56:01.890Z,8.47
2019-01-15T23:58:29.316Z,9.67
